sensor_id;sensor_type;location;lat;lon;timestamp;P1;durP1;ratioP1;P2;durP2;ratioP2
19291;SDS011;9779;51.756;7.450;2023-03-26T02:56:55;17.40;;;4.90;;
19291;SDS011;9779;51.756;7.450;2023-03-26T02:59:20;26.17;;;6.60;;
19291;SDS011;9779;51.756;7.450;2023-03-26T03:01:46;22.97;;;6.23;;
19291;SDS011;9779;51.756;7.450;2023-03-26T03:04:11;25.20;;;5.73;;
19291;SDS011;9779;51.756;7.450;2023-03-26T03:06:37;35.23;;;6.10;;
19291;SDS011;9779;51.756;7.450;2023-03-26T03:09:05;17.43;;;5.43;;
19291;SDS011;9779;51.756;7.450;2023-03-26T03:11:35;24.03;;;5.17;;
19291;SDS011;9779;51.756;7.450;2023-03-26T03:14:04;31.00;;;5.90;;
19291;SDS011;9779;51.756;7.450;2023-03-26T03:16:31;30.80;;;5.43;;
19291;SDS011;9779;51.756;7.450;2023-03-26T03:18:57;21.10;;;5.80;;
19291;SDS011;9779;51.756;7.450;2023-03-26T03:21:23;25.37;;;5.53;;
19291;SDS011;9779;51.756;7.450;2023-03-26T03:23:56;27.23;;;5.57;;
19291;SDS011;9779;51.756;7.450;2023-03-26T03:26:22;22.57;;;5.00;;
19291;SDS011;9779;51.756;7.450;2023-03-26T03:28:51;28.67;;;5.97;;
19291;SDS011;9779;51.756;7.450;2023-03-26T03:31:18;22.07;;;5.40;;
19291;SDS011;9779;51.756;7.450;2023-03-26T03:33:43;21.93;;;6.10;;
19291;SDS011;9779;51.756;7.450;2023-03-26T03:36:10;31.83;;;6.07;;
19291;SDS011;9779;51.756;7.450;2023-03-26T03:38:37;19.10;;;6.00;;
19291;SDS011;9779;51.756;7.450;2023-03-26T03:41:05;28.07;;;5.97;;
19291;SDS011;9779;51.756;7.450;2023-03-26T03:43:32;22.63;;;6.23;;
19291;SDS011;9779;51.756;7.450;2023-03-26T03:45:58;22.87;;;4.93;;
19291;SDS011;9779;51.756;7.450;2023-03-26T03:48:24;26.53;;;5.70;;
19291;SDS011;9779;51.756;7.450;2023-03-26T03:50:50;28.13;;;6.23;;
19291;SDS011;9779;51.756;7.450;2023-03-26T03:53:17;21.60;;;5.47;;
19291;SDS011;9779;51.756;7.450;2023-03-26T03:55:43;26.67;;;5.10;;
19291;SDS011;9779;51.756;7.450;2023-03-26T03:58:16;25.30;;;5.17;;
19291;SDS011;9779;51.756;7.450;2023-03-26T04:00:49;16.13;;;4.00;;
19291;SDS011;9779;51.756;7.450;2023-03-26T04:03:16;25.00;;;5.00;;
19291;SDS011;9779;51.756;7.450;2023-03-26T04:05:44;20.47;;;5.77;;
19291;SDS011;9779;51.756;7.450;2023-03-26T04:08:16;28.07;;;5.43;;
19291;SDS011;9779;51.756;7.450;2023-03-26T04:10:42;30.93;;;5.97;;
19291;SDS011;9779;51.756;7.450;2023-03-26T04:13:09;31.10;;;5.27;;
19291;SDS011;9779;51.756;7.450;2023-03-26T04:15:38;15.43;;;4.70;;
19291;SDS011;9779;51.756;7.450;2023-03-26T04:18:04;21.00;;;5.60;;
19291;SDS011;9779;51.756;7.450;2023-03-26T04:20:34;21.20;;;5.20;;
19291;SDS011;9779;51.756;7.450;2023-03-26T04:23:02;26.00;;;6.13;;
19291;SDS011;9779;51.756;7.450;2023-03-26T04:25:28;22.63;;;4.80;;
19291;SDS011;9779;51.756;7.450;2023-03-26T04:27:54;16.70;;;4.83;;
19291;SDS011;9779;51.756;7.450;2023-03-26T04:30:22;22.13;;;6.13;;
19291;SDS011;9779;51.756;7.450;2023-03-26T04:32:48;21.33;;;5.67;;
19291;SDS011;9779;51.756;7.450;2023-03-26T04:35:13;24.73;;;6.40;;
19291;SDS011;9779;51.756;7.450;2023-03-26T04:37:41;23.07;;;6.37;;
19291;SDS011;9779;51.756;7.450;2023-03-26T04:40:11;14.23;;;5.67;;
19291;SDS011;9779;51.756;7.450;2023-03-26T04:42:39;27.60;;;5.80;;
19291;SDS011;9779;51.756;7.450;2023-03-26T04:45:14;21.23;;;5.47;;
19291;SDS011;9779;51.756;7.450;2023-03-26T04:47:41;25.83;;;6.10;;
19291;SDS011;9779;51.756;7.450;2023-03-26T04:50:08;17.63;;;5.07;;
19291;SDS011;9779;51.756;7.450;2023-03-26T04:52:34;22.87;;;5.23;;
19291;SDS011;9779;51.756;7.450;2023-03-26T04:55:00;19.23;;;5.40;;
19291;SDS011;9779;51.756;7.450;2023-03-26T04:57:26;24.47;;;5.23;;
19291;SDS011;9779;51.756;7.450;2023-03-26T04:59:56;23.80;;;5.57;;
19291;SDS011;9779;51.756;7.450;2023-03-26T05:02:22;18.57;;;5.53;;
19291;SDS011;9779;51.756;7.450;2023-03-26T05:04:48;20.10;;;5.50;;
19291;SDS011;9779;51.756;7.450;2023-03-26T05:07:20;20.50;;;5.20;;
19291;SDS011;9779;51.756;7.450;2023-03-26T05:09:47;25.33;;;5.87;;
19291;SDS011;9779;51.756;7.450;2023-03-26T05:12:13;19.37;;;5.77;;
19291;SDS011;9779;51.756;7.450;2023-03-26T05:14:40;15.83;;;5.53;;
19291;SDS011;9779;51.756;7.450;2023-03-26T05:17:05;15.83;;;5.50;;
19291;SDS011;9779;51.756;7.450;2023-03-26T05:19:34;18.43;;;5.87;;
19291;SDS011;9779;51.756;7.450;2023-03-26T05:22:00;23.23;;;6.07;;
19291;SDS011;9779;51.756;7.450;2023-03-26T05:24:26;20.23;;;5.17;;
19291;SDS011;9779;51.756;7.450;2023-03-26T05:26:52;22.83;;;5.70;;
19291;SDS011;9779;51.756;7.450;2023-03-26T05:29:18;27.77;;;5.77;;
19291;SDS011;9779;51.756;7.450;2023-03-26T05:31:46;37.87;;;7.07;;
19291;SDS011;9779;51.756;7.450;2023-03-26T05:34:12;24.87;;;6.23;;
19291;SDS011;9779;51.756;7.450;2023-03-26T05:36:38;23.73;;;6.00;;
19291;SDS011;9779;51.756;7.450;2023-03-26T05:39:04;23.47;;;4.80;;
19291;SDS011;9779;51.756;7.450;2023-03-26T05:41:30;19.23;;;5.50;;
19291;SDS011;9779;51.756;7.450;2023-03-26T05:43:56;19.13;;;5.83;;
19291;SDS011;9779;51.756;7.450;2023-03-26T05:46:21;17.43;;;5.20;;
19291;SDS011;9779;51.756;7.450;2023-03-26T05:48:47;20.43;;;5.13;;
19291;SDS011;9779;51.756;7.450;2023-03-26T05:51:13;12.43;;;4.23;;
19291;SDS011;9779;51.756;7.450;2023-03-26T05:53:42;17.33;;;5.53;;
19291;SDS011;9779;51.756;7.450;2023-03-26T05:56:08;17.83;;;5.03;;
19291;SDS011;9779;51.756;7.450;2023-03-26T05:58:34;16.13;;;4.90;;
19291;SDS011;9779;51.756;7.450;2023-03-26T06:01:01;23.67;;;5.10;;
19291;SDS011;9779;51.756;7.450;2023-03-26T06:03:36;22.40;;;5.70;;
19291;SDS011;9779;51.756;7.450;2023-03-26T06:06:06;18.23;;;5.73;;
19291;SDS011;9779;51.756;7.450;2023-03-26T06:08:39;20.77;;;5.30;;
19291;SDS011;9779;51.756;7.450;2023-03-26T06:11:06;19.53;;;5.50;;
19291;SDS011;9779;51.756;7.450;2023-03-26T06:13:32;14.17;;;4.90;;
19291;SDS011;9779;51.756;7.450;2023-03-26T06:15:58;27.57;;;5.27;;
19291;SDS011;9779;51.756;7.450;2023-03-26T06:18:24;26.90;;;5.40;;
19291;SDS011;9779;51.756;7.450;2023-03-26T06:20:50;19.93;;;5.57;;
19291;SDS011;9779;51.756;7.450;2023-03-26T06:23:16;11.10;;;4.63;;
19291;SDS011;9779;51.756;7.450;2023-03-26T06:25:42;19.53;;;5.37;;
19291;SDS011;9779;51.756;7.450;2023-03-26T06:28:09;19.57;;;5.60;;
19291;SDS011;9779;51.756;7.450;2023-03-26T06:30:35;14.27;;;4.83;;
19291;SDS011;9779;51.756;7.450;2023-03-26T06:33:01;12.57;;;4.43;;
19291;SDS011;9779;51.756;7.450;2023-03-26T06:35:27;18.47;;;5.47;;
19291;SDS011;9779;51.756;7.450;2023-03-26T06:37:54;20.23;;;5.17;;
19291;SDS011;9779;51.756;7.450;2023-03-26T06:40:20;19.73;;;4.87;;
19291;SDS011;9779;51.756;7.450;2023-03-26T06:42:46;21.70;;;4.73;;
19291;SDS011;9779;51.756;7.450;2023-03-26T06:45:11;18.80;;;5.53;;
19291;SDS011;9779;51.756;7.450;2023-03-26T06:47:37;19.80;;;4.93;;
19291;SDS011;9779;51.756;7.450;2023-03-26T06:50:03;17.87;;;4.67;;
19291;SDS011;9779;51.756;7.450;2023-03-26T06:52:29;18.90;;;4.67;;
19291;SDS011;9779;51.756;7.450;2023-03-26T06:54:55;22.10;;;4.63;;
19291;SDS011;9779;51.756;7.450;2023-03-26T06:57:20;22.70;;;4.97;;
19291;SDS011;9779;51.756;7.450;2023-03-26T06:59:46;21.87;;;4.80;;
19291;SDS011;9779;51.756;7.450;2023-03-26T07:02:11;21.47;;;4.87;;
19291;SDS011;9779;51.756;7.450;2023-03-26T07:04:37;17.63;;;4.90;;
19291;SDS011;9779;51.756;7.450;2023-03-26T07:07:03;18.80;;;5.07;;
19291;SDS011;9779;51.756;7.450;2023-03-26T07:09:28;21.63;;;4.47;;
19291;SDS011;9779;51.756;7.450;2023-03-26T07:11:54;24.83;;;4.70;;
19291;SDS011;9779;51.756;7.450;2023-03-26T07:14:21;23.07;;;4.57;;
19291;SDS011;9779;51.756;7.450;2023-03-26T07:16:48;17.93;;;4.50;;
19291;SDS011;9779;51.756;7.450;2023-03-26T07:19:14;19.50;;;4.43;;
19291;SDS011;9779;51.756;7.450;2023-03-26T07:21:40;19.93;;;4.13;;
19291;SDS011;9779;51.756;7.450;2023-03-26T07:24:08;12.83;;;4.17;;
19291;SDS011;9779;51.756;7.450;2023-03-26T07:29:32;19.10;;;4.87;;
19291;SDS011;9779;51.756;7.450;2023-03-26T07:35:12;23.97;;;4.40;;
19291;SDS011;9779;51.756;7.450;2023-03-26T07:43:32;13.50;;;3.97;;
19291;SDS011;9779;51.756;7.450;2023-03-26T07:46:01;17.13;;;4.07;;
19291;SDS011;9779;51.756;7.450;2023-03-26T07:48:37;18.37;;;3.60;;
19291;SDS011;9779;51.756;7.450;2023-03-26T07:51:05;16.53;;;4.27;;
19291;SDS011;9779;51.756;7.450;2023-03-26T07:53:31;16.37;;;3.97;;
19291;SDS011;9779;51.756;7.450;2023-03-26T07:56:08;14.03;;;4.37;;
19291;SDS011;9779;51.756;7.450;2023-03-26T08:04:01;23.00;;;4.93;;
19291;SDS011;9779;51.756;7.450;2023-03-26T08:06:48;21.50;;;4.57;;
19291;SDS011;9779;51.756;7.450;2023-03-26T08:12:07;14.07;;;4.93;;
19291;SDS011;9779;51.756;7.450;2023-03-26T08:14:56;18.80;;;4.13;;
19291;SDS011;9779;51.756;7.450;2023-03-26T08:17:50;10.73;;;3.93;;
19291;SDS011;9779;51.756;7.450;2023-03-26T08:31:45;20.30;;;4.30;;
19291;SDS011;9779;51.756;7.450;2023-03-26T08:34:12;25.63;;;4.27;;
19291;SDS011;9779;51.756;7.450;2023-03-26T08:36:38;25.23;;;4.63;;
19291;SDS011;9779;51.756;7.450;2023-03-26T08:39:03;12.70;;;3.73;;
19291;SDS011;9779;51.756;7.450;2023-03-26T08:47:03;17.17;;;4.00;;
19291;SDS011;9779;51.756;7.450;2023-03-26T08:50:13;24.17;;;3.93;;
19291;SDS011;9779;51.756;7.450;2023-03-26T08:58:57;14.00;;;3.67;;
19291;SDS011;9779;51.756;7.450;2023-03-26T09:01:50;15.77;;;3.87;;
19291;SDS011;9779;51.756;7.450;2023-03-26T09:04:39;17.43;;;4.47;;
19291;SDS011;9779;51.756;7.450;2023-03-26T09:32:48;16.60;;;4.77;;
19291;SDS011;9779;51.756;7.450;2023-03-26T09:38:10;12.87;;;4.03;;
19291;SDS011;9779;51.756;7.450;2023-03-26T09:41:01;15.37;;;3.97;;
19291;SDS011;9779;51.756;7.450;2023-03-26T09:51:57;9.73;;;4.43;;
19291;SDS011;9779;51.756;7.450;2023-03-26T09:57:53;12.80;;;3.83;;
19291;SDS011;9779;51.756;7.450;2023-03-26T10:02:52;12.90;;;4.37;;
19291;SDS011;9779;51.756;7.450;2023-03-26T10:11:00;13.87;;;4.03;;
19291;SDS011;9779;51.756;7.450;2023-03-26T10:13:59;18.80;;;5.03;;
19291;SDS011;9779;51.756;7.450;2023-03-26T10:19:47;12.03;;;3.07;;
19291;SDS011;9779;51.756;7.450;2023-03-26T10:25:32;8.67;;;2.97;;
19291;SDS011;9779;51.756;7.450;2023-03-26T10:56:13;10.37;;;3.03;;
19291;SDS011;9779;51.756;7.450;2023-03-26T10:58:59;4.20;;;1.73;;
19291;SDS011;9779;51.756;7.450;2023-03-26T11:04:04;4.73;;;1.87;;
19291;SDS011;9779;51.756;7.450;2023-03-26T11:06:44;6.53;;;1.50;;
19291;SDS011;9779;51.756;7.450;2023-03-26T11:09:34;3.93;;;1.80;;
19291;SDS011;9779;51.756;7.450;2023-03-26T11:12:32;3.33;;;1.70;;
19291;SDS011;9779;51.756;7.450;2023-03-26T11:15:16;2.47;;;1.13;;
19291;SDS011;9779;51.756;7.450;2023-03-26T11:31:18;2.17;;;1.20;;
19291;SDS011;9779;51.756;7.450;2023-03-26T11:33:57;2.57;;;1.20;;
19291;SDS011;9779;51.756;7.450;2023-03-26T11:36:30;2.33;;;1.10;;
19291;SDS011;9779;51.756;7.450;2023-03-26T11:39:00;3.13;;;1.33;;
19291;SDS011;9779;51.756;7.450;2023-03-26T11:41:32;4.07;;;1.50;;
19291;SDS011;9779;51.756;7.450;2023-03-26T11:46:28;3.37;;;1.67;;
19291;SDS011;9779;51.756;7.450;2023-03-26T11:48:56;6.47;;;1.67;;
19291;SDS011;9779;51.756;7.450;2023-03-26T11:51:30;5.53;;;1.53;;
19291;SDS011;9779;51.756;7.450;2023-03-26T11:54:01;2.50;;;1.57;;
19291;SDS011;9779;51.756;7.450;2023-03-26T12:01:58;2.73;;;1.50;;
19291;SDS011;9779;51.756;7.450;2023-03-26T12:04:45;1.93;;;1.60;;
19291;SDS011;9779;51.756;7.450;2023-03-26T12:07:22;2.90;;;1.27;;
19291;SDS011;9779;51.756;7.450;2023-03-26T12:09:59;2.30;;;1.10;;
19291;SDS011;9779;51.756;7.450;2023-03-26T12:12:27;4.60;;;1.67;;
19291;SDS011;9779;51.756;7.450;2023-03-26T12:15:11;4.63;;;1.30;;
19291;SDS011;9779;51.756;7.450;2023-03-26T12:17:40;2.53;;;1.20;;
19291;SDS011;9779;51.756;7.450;2023-03-26T12:22:50;4.70;;;2.23;;
19291;SDS011;9779;51.756;7.450;2023-03-26T12:25:30;3.33;;;2.70;;
19291;SDS011;9779;51.756;7.450;2023-03-26T12:27:59;3.23;;;1.87;;
19291;SDS011;9779;51.756;7.450;2023-03-26T12:30:30;5.10;;;2.03;;
19291;SDS011;9779;51.756;7.450;2023-03-26T12:33:21;1.90;;;1.60;;
19291;SDS011;9779;51.756;7.450;2023-03-26T12:35:50;2.93;;;1.47;;
19291;SDS011;9779;51.756;7.450;2023-03-26T12:48:49;1.30;;;0.90;;
19291;SDS011;9779;51.756;7.450;2023-03-26T12:51:22;1.30;;;1.00;;
19291;SDS011;9779;51.756;7.450;2023-03-26T12:56:50;2.40;;;1.00;;
19291;SDS011;9779;51.756;7.450;2023-03-26T13:07:56;3.30;;;1.20;;
19291;SDS011;9779;51.756;7.450;2023-03-26T13:21:42;2.57;;;1.50;;
19291;SDS011;9779;51.756;7.450;2023-03-26T13:24:33;1.23;;;1.13;;
19291;SDS011;9779;51.756;7.450;2023-03-26T13:27:25;26.53;;;17.17;;
19291;SDS011;9779;51.756;7.450;2023-03-26T13:30:19;9.33;;;6.00;;
19291;SDS011;9779;51.756;7.450;2023-03-26T13:33:10;33.83;;;20.83;;
19291;SDS011;9779;51.756;7.450;2023-03-26T13:36:05;9.97;;;8.80;;
19291;SDS011;9779;51.756;7.450;2023-03-26T13:38:58;4.87;;;3.47;;
19291;SDS011;9779;51.756;7.450;2023-03-26T13:41:40;2.03;;;1.73;;
19291;SDS011;9779;51.756;7.450;2023-03-26T13:47:09;2.77;;;1.90;;
19291;SDS011;9779;51.756;7.450;2023-03-26T13:49:50;2.53;;;1.90;;
19291;SDS011;9779;51.756;7.450;2023-03-26T13:52:21;4.17;;;3.00;;
19291;SDS011;9779;51.756;7.450;2023-03-26T13:57:48;4.77;;;1.80;;
19291;SDS011;9779;51.756;7.450;2023-03-26T14:00:24;3.67;;;2.60;;
19291;SDS011;9779;51.756;7.450;2023-03-26T14:03:17;4.20;;;1.90;;
19291;SDS011;9779;51.756;7.450;2023-03-26T14:05:54;2.23;;;2.03;;
19291;SDS011;9779;51.756;7.450;2023-03-26T14:08:26;2.60;;;2.13;;
19291;SDS011;9779;51.756;7.450;2023-03-26T14:11:02;4.63;;;2.03;;
19291;SDS011;9779;51.756;7.450;2023-03-26T14:13:37;1.80;;;1.57;;
19291;SDS011;9779;51.756;7.450;2023-03-26T14:16:35;4.23;;;1.70;;
19291;SDS011;9779;51.756;7.450;2023-03-26T14:19:22;2.73;;;1.57;;
19291;SDS011;9779;51.756;7.450;2023-03-26T14:27:12;2.27;;;1.70;;
19291;SDS011;9779;51.756;7.450;2023-03-26T14:38:54;2.20;;;1.50;;
19291;SDS011;9779;51.756;7.450;2023-03-26T14:44:17;2.03;;;1.80;;
19291;SDS011;9779;51.756;7.450;2023-03-26T14:47:14;3.37;;;1.70;;
19291;SDS011;9779;51.756;7.450;2023-03-26T14:49:50;1.73;;;1.60;;
19291;SDS011;9779;51.756;7.450;2023-03-26T14:52:34;1.50;;;1.40;;
19291;SDS011;9779;51.756;7.450;2023-03-26T14:55:05;3.57;;;1.57;;
19291;SDS011;9779;51.756;7.450;2023-03-26T14:57:58;3.27;;;1.40;;
19291;SDS011;9779;51.756;7.450;2023-03-26T15:43:20;19.20;;;5.63;;
19291;SDS011;9779;51.756;7.450;2023-03-26T15:45:50;17.33;;;5.67;;
19291;SDS011;9779;51.756;7.450;2023-03-26T15:48:48;10.43;;;5.53;;
19291;SDS011;9779;51.756;7.450;2023-03-26T15:51:20;12.10;;;4.70;;
19291;SDS011;9779;51.756;7.450;2023-03-26T16:10:50;12.33;;;5.20;;
19291;SDS011;9779;51.756;7.450;2023-03-26T16:13:26;20.33;;;6.57;;
19291;SDS011;9779;51.756;7.450;2023-03-26T16:15:56;10.43;;;4.70;;
19291;SDS011;9779;51.756;7.450;2023-03-26T16:18:35;19.60;;;4.67;;
19291;SDS011;9779;51.756;7.450;2023-03-26T16:29:32;15.50;;;6.00;;
19291;SDS011;9779;51.756;7.450;2023-03-26T16:32:26;14.20;;;7.60;;
19291;SDS011;9779;51.756;7.450;2023-03-26T16:45:33;9.60;;;6.30;;
19291;SDS011;9779;51.756;7.450;2023-03-26T16:50:39;14.60;;;4.80;;
19291;SDS011;9779;51.756;7.450;2023-03-26T16:53:19;7.67;;;3.50;;
19291;SDS011;9779;51.756;7.450;2023-03-26T16:58:55;6.13;;;3.40;;
19291;SDS011;9779;51.756;7.450;2023-03-26T17:01:38;15.93;;;4.00;;
19291;SDS011;9779;51.756;7.450;2023-03-26T17:04:15;19.17;;;4.20;;
19291;SDS011;9779;51.756;7.450;2023-03-26T17:09:34;8.43;;;4.40;;
19291;SDS011;9779;51.756;7.450;2023-03-26T17:12:13;16.13;;;4.30;;
19291;SDS011;9779;51.756;7.450;2023-03-26T17:20:24;14.87;;;2.93;;
19291;SDS011;9779;51.756;7.450;2023-03-26T17:25:43;27.83;;;4.20;;
19291;SDS011;9779;51.756;7.450;2023-03-26T17:37:03;11.77;;;3.80;;
19291;SDS011;9779;51.756;7.450;2023-03-26T17:42:26;11.57;;;3.60;;
19291;SDS011;9779;51.756;7.450;2023-03-26T17:44:56;10.33;;;2.77;;
19291;SDS011;9779;51.756;7.450;2023-03-26T17:50:12;12.13;;;3.30;;
19291;SDS011;9779;51.756;7.450;2023-03-26T17:55:28;7.40;;;2.80;;
19291;SDS011;9779;51.756;7.450;2023-03-26T17:58:00;11.63;;;3.40;;
19291;SDS011;9779;51.756;7.450;2023-03-26T18:00:49;15.10;;;3.53;;
19291;SDS011;9779;51.756;7.450;2023-03-26T18:03:24;16.57;;;3.97;;
19291;SDS011;9779;51.756;7.450;2023-03-26T18:06:36;10.67;;;3.73;;
19291;SDS011;9779;51.756;7.450;2023-03-26T18:11:44;6.07;;;3.87;;
19291;SDS011;9779;51.756;7.450;2023-03-26T18:17:07;12.60;;;3.40;;
19291;SDS011;9779;51.756;7.450;2023-03-26T18:19:52;11.80;;;3.93;;
19291;SDS011;9779;51.756;7.450;2023-03-26T18:22:27;17.87;;;4.87;;
19291;SDS011;9779;51.756;7.450;2023-03-26T18:24:55;21.07;;;4.47;;
19291;SDS011;9779;51.756;7.450;2023-03-26T18:27:23;16.27;;;4.67;;
19291;SDS011;9779;51.756;7.450;2023-03-26T18:32:24;8.63;;;4.00;;
19291;SDS011;9779;51.756;7.450;2023-03-26T18:34:58;16.23;;;4.40;;
19291;SDS011;9779;51.756;7.450;2023-03-26T18:37:27;18.00;;;8.93;;
19291;SDS011;9779;51.756;7.450;2023-03-26T18:39:59;16.07;;;4.90;;
19291;SDS011;9779;51.756;7.450;2023-03-26T18:42:39;12.80;;;4.07;;
19291;SDS011;9779;51.756;7.450;2023-03-26T18:45:32;17.57;;;4.13;;
19291;SDS011;9779;51.756;7.450;2023-03-26T18:48:31;10.53;;;3.27;;
19291;SDS011;9779;51.756;7.450;2023-03-26T18:50:52;6.93;;;3.23;;
19291;SDS011;9779;51.756;7.450;2023-03-26T18:53:24;19.40;;;3.70;;
19291;SDS011;9779;51.756;7.450;2023-03-26T18:55:53;8.20;;;2.60;;
19291;SDS011;9779;51.756;7.450;2023-03-26T19:00:50;10.47;;;2.87;;
19291;SDS011;9779;51.756;7.450;2023-03-26T19:03:19;12.80;;;3.20;;
19291;SDS011;9779;51.756;7.450;2023-03-26T19:05:48;9.40;;;3.13;;
19291;SDS011;9779;51.756;7.450;2023-03-26T19:08:16;10.20;;;2.33;;
19291;SDS011;9779;51.756;7.450;2023-03-26T19:10:49;11.50;;;2.63;;
19291;SDS011;9779;51.756;7.450;2023-03-26T19:13:18;21.30;;;2.90;;
19291;SDS011;9779;51.756;7.450;2023-03-26T19:15:44;12.47;;;3.00;;
19291;SDS011;9779;51.756;7.450;2023-03-26T19:18:11;6.17;;;2.77;;
19291;SDS011;9779;51.756;7.450;2023-03-26T19:20:48;15.83;;;3.17;;
19291;SDS011;9779;51.756;7.450;2023-03-26T19:23:20;6.97;;;2.40;;
19291;SDS011;9779;51.756;7.450;2023-03-26T19:25:53;11.03;;;2.83;;
19291;SDS011;9779;51.756;7.450;2023-03-26T19:28:38;11.43;;;3.00;;
19291;SDS011;9779;51.756;7.450;2023-03-26T19:31:18;9.07;;;3.40;;
19291;SDS011;9779;51.756;7.450;2023-03-26T19:33:58;15.00;;;5.87;;
19291;SDS011;9779;51.756;7.450;2023-03-26T19:36:57;17.17;;;7.00;;
19291;SDS011;9779;51.756;7.450;2023-03-26T19:39:38;10.63;;;4.87;;
19291;SDS011;9779;51.756;7.450;2023-03-26T19:42:11;13.20;;;3.37;;
19291;SDS011;9779;51.756;7.450;2023-03-26T19:44:39;7.87;;;4.40;;
19291;SDS011;9779;51.756;7.450;2023-03-26T19:47:07;21.80;;;8.27;;
19291;SDS011;9779;51.756;7.450;2023-03-26T19:52:21;9.83;;;3.60;;
